sensor_id;sensor_type;location;lat;lon;timestamp;P1;durP1;ratioP1;P2;durP2;ratioP2
40501;SDS011;29631;49.168;9.848;2023-06-14T00:01:46;3.35;;;3.15;;
40501;SDS011;29631;49.168;9.848;2023-06-14T00:04:12;5.55;;;3.15;;
40501;SDS011;29631;49.168;9.848;2023-06-14T00:06:38;4.90;;;3.30;;
40501;SDS011;29631;49.168;9.848;2023-06-14T00:09:04;3.33;;;3.13;;
40501;SDS011;29631;49.168;9.848;2023-06-14T00:11:30;3.33;;;3.17;;
40501;SDS011;29631;49.168;9.848;2023-06-14T00:13:57;3.45;;;3.20;;
40501;SDS011;29631;49.168;9.848;2023-06-14T00:16:22;3.17;;;2.97;;
40501;SDS011;29631;49.168;9.848;2023-06-14T00:18:49;3.67;;;3.38;;
40501;SDS011;29631;49.168;9.848;2023-06-14T00:21:16;3.53;;;3.20;;
40501;SDS011;29631;49.168;9.848;2023-06-14T00:23:42;3.38;;;3.05;;
40501;SDS011;29631;49.168;9.848;2023-06-14T00:26:08;3.17;;;2.95;;
40501;SDS011;29631;49.168;9.848;2023-06-14T00:28:34;3.10;;;2.90;;
40501;SDS011;29631;49.168;9.848;2023-06-14T00:31:00;3.63;;;3.33;;
40501;SDS011;29631;49.168;9.848;2023-06-14T00:33:25;3.95;;;3.67;;
40501;SDS011;29631;49.168;9.848;2023-06-14T00:35:51;3.08;;;2.83;;
40501;SDS011;29631;49.168;9.848;2023-06-14T00:38:19;3.00;;;2.80;;
40501;SDS011;29631;49.168;9.848;2023-06-14T00:40:45;3.00;;;2.90;;
40501;SDS011;29631;49.168;9.848;2023-06-14T00:43:11;3.22;;;3.03;;
40501;SDS011;29631;49.168;9.848;2023-06-14T00:45:37;3.40;;;3.20;;
40501;SDS011;29631;49.168;9.848;2023-06-14T00:48:04;3.50;;;3.30;;
40501;SDS011;29631;49.168;9.848;2023-06-14T00:50:31;3.60;;;3.40;;
40501;SDS011;29631;49.168;9.848;2023-06-14T00:52:58;4.22;;;3.92;;
40501;SDS011;29631;49.168;9.848;2023-06-14T00:55:26;3.42;;;3.22;;
40501;SDS011;29631;49.168;9.848;2023-06-14T00:57:53;4.72;;;3.40;;
40501;SDS011;29631;49.168;9.848;2023-06-14T01:00:20;3.08;;;2.88;;
40501;SDS011;29631;49.168;9.848;2023-06-14T01:02:46;3.50;;;3.20;;
40501;SDS011;29631;49.168;9.848;2023-06-14T01:05:12;3.63;;;3.42;;
40501;SDS011;29631;49.168;9.848;2023-06-14T01:11:01;3.28;;;3.08;;
40501;SDS011;29631;49.168;9.848;2023-06-14T01:13:38;3.50;;;3.20;;
40501;SDS011;29631;49.168;9.848;2023-06-14T01:16:08;3.30;;;3.10;;
40501;SDS011;29631;49.168;9.848;2023-06-14T01:18:34;3.58;;;3.17;;
40501;SDS011;29631;49.168;9.848;2023-06-14T01:21:01;3.50;;;3.30;;
40501;SDS011;29631;49.168;9.848;2023-06-14T01:23:30;3.20;;;3.00;;
40501;SDS011;29631;49.168;9.848;2023-06-14T01:25:58;4.10;;;3.50;;
40501;SDS011;29631;49.168;9.848;2023-06-14T01:28:25;3.67;;;2.95;;
40501;SDS011;29631;49.168;9.848;2023-06-14T01:30:56;3.42;;;3.17;;
40501;SDS011;29631;49.168;9.848;2023-06-14T01:33:28;3.45;;;3.15;;
40501;SDS011;29631;49.168;9.848;2023-06-14T01:35:55;3.50;;;3.30;;
40501;SDS011;29631;49.168;9.848;2023-06-14T01:38:23;3.38;;;3.17;;
40501;SDS011;29631;49.168;9.848;2023-06-14T01:40:51;3.40;;;3.20;;
40501;SDS011;29631;49.168;9.848;2023-06-14T01:43:20;3.10;;;3.00;;
40501;SDS011;29631;49.168;9.848;2023-06-14T01:45:48;3.55;;;3.20;;
40501;SDS011;29631;49.168;9.848;2023-06-14T01:48:15;5.82;;;3.38;;
40501;SDS011;29631;49.168;9.848;2023-06-14T01:50:42;3.42;;;3.22;;
40501;SDS011;29631;49.168;9.848;2023-06-14T01:53:08;3.50;;;3.30;;
40501;SDS011;29631;49.168;9.848;2023-06-14T01:55:35;3.45;;;3.25;;
40501;SDS011;29631;49.168;9.848;2023-06-14T01:58:05;3.20;;;3.00;;
40501;SDS011;29631;49.168;9.848;2023-06-14T02:00:31;3.53;;;3.22;;
40501;SDS011;29631;49.168;9.848;2023-06-14T02:02:57;4.25;;;3.38;;
40501;SDS011;29631;49.168;9.848;2023-06-14T02:05:23;4.28;;;3.22;;
40501;SDS011;29631;49.168;9.848;2023-06-14T02:07:49;3.70;;;3.33;;
40501;SDS011;29631;49.168;9.848;2023-06-14T02:10:15;2.90;;;2.70;;
40501;SDS011;29631;49.168;9.848;2023-06-14T02:12:42;3.65;;;3.28;;
40501;SDS011;29631;49.168;9.848;2023-06-14T02:15:09;3.58;;;3.38;;
40501;SDS011;29631;49.168;9.848;2023-06-14T02:17:41;3.67;;;3.38;;
40501;SDS011;29631;49.168;9.848;2023-06-14T02:20:14;3.13;;;2.92;;
40501;SDS011;29631;49.168;9.848;2023-06-14T02:22:40;3.67;;;3.38;;
40501;SDS011;29631;49.168;9.848;2023-06-14T02:25:07;3.53;;;3.20;;
40501;SDS011;29631;49.168;9.848;2023-06-14T02:27:33;3.03;;;2.83;;
40501;SDS011;29631;49.168;9.848;2023-06-14T02:30:00;3.55;;;3.22;;
40501;SDS011;29631;49.168;9.848;2023-06-14T02:32:26;3.67;;;3.38;;
40501;SDS011;29631;49.168;9.848;2023-06-14T02:34:52;3.30;;;3.10;;
40501;SDS011;29631;49.168;9.848;2023-06-14T02:37:19;3.70;;;3.15;;
40501;SDS011;29631;49.168;9.848;2023-06-14T02:39:45;4.10;;;3.70;;
40501;SDS011;29631;49.168;9.848;2023-06-14T02:42:10;3.38;;;3.13;;
40501;SDS011;29631;49.168;9.848;2023-06-14T02:44:36;3.30;;;3.10;;
40501;SDS011;29631;49.168;9.848;2023-06-14T02:47:02;3.47;;;3.28;;
40501;SDS011;29631;49.168;9.848;2023-06-14T02:49:29;3.58;;;3.28;;
40501;SDS011;29631;49.168;9.848;2023-06-14T02:51:55;3.53;;;3.33;;
40501;SDS011;29631;49.168;9.848;2023-06-14T02:54:21;3.65;;;3.42;;
40501;SDS011;29631;49.168;9.848;2023-06-14T02:56:47;3.38;;;3.13;;
40501;SDS011;29631;49.168;9.848;2023-06-14T02:59:12;3.55;;;3.35;;
40501;SDS011;29631;49.168;9.848;2023-06-14T03:01:39;3.90;;;3.42;;
40501;SDS011;29631;49.168;9.848;2023-06-14T03:04:07;3.90;;;3.58;;
40501;SDS011;29631;49.168;9.848;2023-06-14T03:06:33;3.25;;;3.03;;
40501;SDS011;29631;49.168;9.848;2023-06-14T03:09:02;3.80;;;3.47;;
40501;SDS011;29631;49.168;9.848;2023-06-14T03:11:32;3.40;;;3.20;;
40501;SDS011;29631;49.168;9.848;2023-06-14T03:13:58;3.30;;;3.10;;
40501;SDS011;29631;49.168;9.848;2023-06-14T03:16:25;3.58;;;3.38;;
40501;SDS011;29631;49.168;9.848;2023-06-14T03:18:53;3.85;;;3.50;;
40501;SDS011;29631;49.168;9.848;2023-06-14T03:21:19;4.03;;;3.78;;
40501;SDS011;29631;49.168;9.848;2023-06-14T03:23:45;4.15;;;3.83;;
40501;SDS011;29631;49.168;9.848;2023-06-14T03:26:12;4.45;;;4.05;;
40501;SDS011;29631;49.168;9.848;2023-06-14T03:28:39;5.30;;;4.80;;
40501;SDS011;29631;49.168;9.848;2023-06-14T03:31:08;5.50;;;5.10;;
40501;SDS011;29631;49.168;9.848;2023-06-14T03:33:33;5.53;;;5.03;;
40501;SDS011;29631;49.168;9.848;2023-06-14T03:35:59;6.72;;;6.10;;
40501;SDS011;29631;49.168;9.848;2023-06-14T03:38:27;7.32;;;6.63;;
40501;SDS011;29631;49.168;9.848;2023-06-14T03:40:52;7.30;;;6.60;;
40501;SDS011;29631;49.168;9.848;2023-06-14T03:43:18;7.68;;;5.85;;
40501;SDS011;29631;49.168;9.848;2023-06-14T03:45:44;6.35;;;5.65;;
40501;SDS011;29631;49.168;9.848;2023-06-14T03:48:10;5.15;;;4.68;;
40501;SDS011;29631;49.168;9.848;2023-06-14T03:50:36;5.13;;;4.63;;
40501;SDS011;29631;49.168;9.848;2023-06-14T03:53:04;4.78;;;4.18;;
40501;SDS011;29631;49.168;9.848;2023-06-14T03:55:30;4.82;;;4.30;;
40501;SDS011;29631;49.168;9.848;2023-06-14T03:57:56;4.90;;;4.50;;
40501;SDS011;29631;49.168;9.848;2023-06-14T04:00:22;4.55;;;4.25;;
40501;SDS011;29631;49.168;9.848;2023-06-14T04:02:48;4.38;;;4.05;;
40501;SDS011;29631;49.168;9.848;2023-06-14T04:05:14;4.22;;;3.92;;
40501;SDS011;29631;49.168;9.848;2023-06-14T04:07:41;4.72;;;4.43;;
40501;SDS011;29631;49.168;9.848;2023-06-14T04:10:10;4.38;;;3.97;;
40501;SDS011;29631;49.168;9.848;2023-06-14T04:12:39;4.63;;;4.32;;
40501;SDS011;29631;49.168;9.848;2023-06-14T04:15:06;4.57;;;4.28;;
40501;SDS011;29631;49.168;9.848;2023-06-14T04:17:33;4.68;;;4.28;;
40501;SDS011;29631;49.168;9.848;2023-06-14T04:20:00;5.78;;;4.63;;
40501;SDS011;29631;49.168;9.848;2023-06-14T04:22:28;4.53;;;4.22;;
40501;SDS011;29631;49.168;9.848;2023-06-14T04:24:57;5.65;;;4.32;;
40501;SDS011;29631;49.168;9.848;2023-06-14T04:27:23;4.80;;;4.47;;
40501;SDS011;29631;49.168;9.848;2023-06-14T04:29:51;4.35;;;4.03;;
40501;SDS011;29631;49.168;9.848;2023-06-14T04:32:28;4.88;;;4.28;;
40501;SDS011;29631;49.168;9.848;2023-06-14T04:35:05;3.92;;;3.70;;
40501;SDS011;29631;49.168;9.848;2023-06-14T04:37:32;4.80;;;4.03;;
40501;SDS011;29631;49.168;9.848;2023-06-14T04:39:58;4.57;;;4.18;;
40501;SDS011;29631;49.168;9.848;2023-06-14T04:42:24;4.68;;;4.30;;
40501;SDS011;29631;49.168;9.848;2023-06-14T04:44:55;4.70;;;4.38;;
40501;SDS011;29631;49.168;9.848;2023-06-14T04:47:21;4.45;;;4.05;;
40501;SDS011;29631;49.168;9.848;2023-06-14T04:49:46;5.00;;;4.57;;
40501;SDS011;29631;49.168;9.848;2023-06-14T04:52:12;4.60;;;4.25;;
40501;SDS011;29631;49.168;9.848;2023-06-14T04:54:38;4.68;;;4.38;;
40501;SDS011;29631;49.168;9.848;2023-06-14T04:57:07;4.50;;;4.20;;
40501;SDS011;29631;49.168;9.848;2023-06-14T04:59:34;5.20;;;4.13;;
40501;SDS011;29631;49.168;9.848;2023-06-14T05:02:00;4.50;;;4.15;;
40501;SDS011;29631;49.168;9.848;2023-06-14T05:04:26;8.15;;;4.35;;
40501;SDS011;29631;49.168;9.848;2023-06-14T05:06:53;4.25;;;3.95;;
40501;SDS011;29631;49.168;9.848;2023-06-14T05:09:19;4.38;;;4.10;;
40501;SDS011;29631;49.168;9.848;2023-06-14T05:11:46;5.00;;;4.60;;
40501;SDS011;29631;49.168;9.848;2023-06-14T05:14:12;4.97;;;3.95;;
40501;SDS011;29631;49.168;9.848;2023-06-14T05:16:39;4.70;;;4.30;;
40501;SDS011;29631;49.168;9.848;2023-06-14T05:19:05;4.75;;;4.35;;
40501;SDS011;29631;49.168;9.848;2023-06-14T05:21:32;4.32;;;4.03;;
40501;SDS011;29631;49.168;9.848;2023-06-14T05:24:01;5.45;;;3.67;;
40501;SDS011;29631;49.168;9.848;2023-06-14T05:26:26;4.68;;;4.28;;
40501;SDS011;29631;49.168;9.848;2023-06-14T05:28:54;3.88;;;3.67;;
40501;SDS011;29631;49.168;9.848;2023-06-14T05:31:21;4.03;;;3.72;;
40501;SDS011;29631;49.168;9.848;2023-06-14T05:33:50;3.90;;;3.60;;
40501;SDS011;29631;49.168;9.848;2023-06-14T05:36:16;3.80;;;3.55;;
40501;SDS011;29631;49.168;9.848;2023-06-14T05:38:43;3.80;;;3.30;;
40501;SDS011;29631;49.168;9.848;2023-06-14T05:41:09;4.32;;;3.97;;
40501;SDS011;29631;49.168;9.848;2023-06-14T05:43:35;4.07;;;3.78;;
40501;SDS011;29631;49.168;9.848;2023-06-14T05:46:01;3.90;;;3.60;;
40501;SDS011;29631;49.168;9.848;2023-06-14T05:48:28;4.13;;;3.83;;
40501;SDS011;29631;49.168;9.848;2023-06-14T05:50:55;4.43;;;4.10;;
40501;SDS011;29631;49.168;9.848;2023-06-14T05:53:21;3.92;;;3.63;;
40501;SDS011;29631;49.168;9.848;2023-06-14T05:55:47;4.55;;;4.25;;
40501;SDS011;29631;49.168;9.848;2023-06-14T05:58:15;4.18;;;3.83;;
40501;SDS011;29631;49.168;9.848;2023-06-14T06:00:41;4.40;;;4.00;;
40501;SDS011;29631;49.168;9.848;2023-06-14T06:03:07;4.95;;;4.30;;
40501;SDS011;29631;49.168;9.848;2023-06-14T06:05:36;4.72;;;4.40;;
40501;SDS011;29631;49.168;9.848;2023-06-14T06:08:01;4.72;;;4.05;;
40501;SDS011;29631;49.168;9.848;2023-06-14T06:10:27;6.60;;;3.83;;
40501;SDS011;29631;49.168;9.848;2023-06-14T06:12:53;8.05;;;4.10;;
40501;SDS011;29631;49.168;9.848;2023-06-14T06:15:19;4.20;;;3.80;;
40501;SDS011;29631;49.168;9.848;2023-06-14T06:17:45;4.07;;;3.72;;
40501;SDS011;29631;49.168;9.848;2023-06-14T06:20:11;4.85;;;3.50;;
40501;SDS011;29631;49.168;9.848;2023-06-14T06:22:37;4.05;;;3.70;;
40501;SDS011;29631;49.168;9.848;2023-06-14T06:25:04;4.05;;;3.70;;
40501;SDS011;29631;49.168;9.848;2023-06-14T06:27:31;4.32;;;3.92;;
40501;SDS011;29631;49.168;9.848;2023-06-14T06:29:57;4.55;;;3.60;;
40501;SDS011;29631;49.168;9.848;2023-06-14T06:32:23;4.40;;;3.67;;
40501;SDS011;29631;49.168;9.848;2023-06-14T06:34:49;4.85;;;3.55;;
40501;SDS011;29631;49.168;9.848;2023-06-14T06:37:15;3.65;;;3.42;;
40501;SDS011;29631;49.168;9.848;2023-06-14T06:39:41;3.47;;;3.28;;
40501;SDS011;29631;49.168;9.848;2023-06-14T06:42:06;3.92;;;3.53;;
40501;SDS011;29631;49.168;9.848;2023-06-14T06:44:32;5.20;;;3.35;;
40501;SDS011;29631;49.168;9.848;2023-06-14T06:46:58;4.60;;;3.50;;
40501;SDS011;29631;49.168;9.848;2023-06-14T06:49:24;4.78;;;3.38;;
40501;SDS011;29631;49.168;9.848;2023-06-14T06:52:02;4.00;;;3.40;;
40501;SDS011;29631;49.168;9.848;2023-06-14T06:54:30;3.53;;;3.33;;
40501;SDS011;29631;49.168;9.848;2023-06-14T06:56:57;4.57;;;3.35;;
40501;SDS011;29631;49.168;9.848;2023-06-14T06:59:23;4.00;;;3.67;;
40501;SDS011;29631;49.168;9.848;2023-06-14T07:01:49;4.80;;;3.38;;
40501;SDS011;29631;49.168;9.848;2023-06-14T07:04:15;3.72;;;3.42;;
40501;SDS011;29631;49.168;9.848;2023-06-14T07:06:41;3.55;;;3.35;;
40501;SDS011;29631;49.168;9.848;2023-06-14T07:09:08;3.63;;;3.42;;
40501;SDS011;29631;49.168;9.848;2023-06-14T07:11:38;3.97;;;3.67;;
40501;SDS011;29631;49.168;9.848;2023-06-14T07:14:04;4.03;;;3.55;;
40501;SDS011;29631;49.168;9.848;2023-06-14T07:16:30;6.13;;;3.83;;
40501;SDS011;29631;49.168;9.848;2023-06-14T07:18:57;3.80;;;3.35;;
40501;SDS011;29631;49.168;9.848;2023-06-14T07:21:22;3.83;;;3.10;;
40501;SDS011;29631;49.168;9.848;2023-06-14T07:23:50;8.13;;;3.70;;
40501;SDS011;29631;49.168;9.848;2023-06-14T07:26:17;4.55;;;3.63;;
40501;SDS011;29631;49.168;9.848;2023-06-14T07:28:43;3.97;;;3.55;;
40501;SDS011;29631;49.168;9.848;2023-06-14T07:31:12;3.70;;;3.40;;
40501;SDS011;29631;49.168;9.848;2023-06-14T07:33:39;4.13;;;3.63;;
40501;SDS011;29631;49.168;9.848;2023-06-14T07:36:06;3.60;;;3.30;;
40501;SDS011;29631;49.168;9.848;2023-06-14T07:38:32;3.40;;;3.10;;
40501;SDS011;29631;49.168;9.848;2023-06-14T07:40:57;3.60;;;3.40;;
40501;SDS011;29631;49.168;9.848;2023-06-14T07:43:23;3.30;;;3.00;;
40501;SDS011;29631;49.168;9.848;2023-06-14T07:45:49;3.50;;;3.30;;
40501;SDS011;29631;49.168;9.848;2023-06-14T07:48:15;4.22;;;2.90;;
40501;SDS011;29631;49.168;9.848;2023-06-14T07:50:40;3.50;;;3.20;;
40501;SDS011;29631;49.168;9.848;2023-06-14T07:53:06;3.60;;;3.30;;
40501;SDS011;29631;49.168;9.848;2023-06-14T07:55:32;3.95;;;3.67;;
40501;SDS011;29631;49.168;9.848;2023-06-14T07:58:01;3.33;;;3.10;;
40501;SDS011;29631;49.168;9.848;2023-06-14T08:00:31;4.88;;;3.45;;
40501;SDS011;29631;49.168;9.848;2023-06-14T08:02:57;3.30;;;3.10;;
40501;SDS011;29631;49.168;9.848;2023-06-14T08:05:24;3.63;;;3.38;;
40501;SDS011;29631;49.168;9.848;2023-06-14T08:07:51;3.67;;;3.47;;
40501;SDS011;29631;49.168;9.848;2023-06-14T08:10:17;3.70;;;3.42;;
40501;SDS011;29631;49.168;9.848;2023-06-14T08:12:43;4.07;;;3.35;;
40501;SDS011;29631;49.168;9.848;2023-06-14T08:15:09;3.38;;;3.25;;
40501;SDS011;29631;49.168;9.848;2023-06-14T08:17:35;3.38;;;3.08;;
40501;SDS011;29631;49.168;9.848;2023-06-14T08:20:01;3.25;;;2.92;;
40501;SDS011;29631;49.168;9.848;2023-06-14T08:22:29;3.60;;;3.30;;
40501;SDS011;29631;49.168;9.848;2023-06-14T08:24:58;3.20;;;3.00;;
40501;SDS011;29631;49.168;9.848;2023-06-14T08:27:26;3.15;;;2.95;;
40501;SDS011;29631;49.168;9.848;2023-06-14T08:29:52;3.33;;;3.13;;
40501;SDS011;29631;49.168;9.848;2023-06-14T08:32:18;4.25;;;3.05;;
40501;SDS011;29631;49.168;9.848;2023-06-14T08:34:44;3.28;;;3.08;;
40501;SDS011;29631;49.168;9.848;2023-06-14T08:37:10;3.38;;;3.17;;
40501;SDS011;29631;49.168;9.848;2023-06-14T08:39:36;3.38;;;2.83;;
40501;SDS011;29631;49.168;9.848;2023-06-14T08:42:02;3.47;;;3.15;;
40501;SDS011;29631;49.168;9.848;2023-06-14T08:44:30;4.63;;;3.42;;
40501;SDS011;29631;49.168;9.848;2023-06-14T08:46:56;3.20;;;3.00;;
40501;SDS011;29631;49.168;9.848;2023-06-14T08:49:24;3.15;;;2.95;;
40501;SDS011;29631;49.168;9.848;2023-06-14T08:51:56;3.55;;;3.33;;
40501;SDS011;29631;49.168;9.848;2023-06-14T08:54:27;3.55;;;3.22;;
40501;SDS011;29631;49.168;9.848;2023-06-14T08:56:59;3.75;;;3.55;;
40501;SDS011;29631;49.168;9.848;2023-06-14T08:59:28;3.83;;;3.53;;
40501;SDS011;29631;49.168;9.848;2023-06-14T09:01:56;5.32;;;3.05;;
40501;SDS011;29631;49.168;9.848;2023-06-14T09:04:22;3.25;;;3.05;;
40501;SDS011;29631;49.168;9.848;2023-06-14T09:06:53;3.45;;;3.15;;
40501;SDS011;29631;49.168;9.848;2023-06-14T09:09:20;3.28;;;3.08;;
40501;SDS011;29631;49.168;9.848;2023-06-14T09:11:47;2.75;;;2.65;;
40501;SDS011;29631;49.168;9.848;2023-06-14T09:14:21;3.30;;;3.03;;
40501;SDS011;29631;49.168;9.848;2023-06-14T09:16:53;4.38;;;3.03;;
40501;SDS011;29631;49.168;9.848;2023-06-14T09:19:23;2.90;;;2.80;;
40501;SDS011;29631;49.168;9.848;2023-06-14T09:21:50;3.38;;;3.08;;
40501;SDS011;29631;49.168;9.848;2023-06-14T09:24:18;3.63;;;3.03;;
40501;SDS011;29631;49.168;9.848;2023-06-14T09:26:46;2.90;;;2.63;;
40501;SDS011;29631;49.168;9.848;2023-06-14T09:29:12;3.10;;;2.85;;
40501;SDS011;29631;49.168;9.848;2023-06-14T09:31:38;3.15;;;2.95;;
40501;SDS011;29631;49.168;9.848;2023-06-14T09:34:04;3.53;;;3.22;;
40501;SDS011;29631;49.168;9.848;2023-06-14T09:36:31;3.47;;;3.25;;
40501;SDS011;29631;49.168;9.848;2023-06-14T09:41:31;3.40;;;3.20;;
40501;SDS011;29631;49.168;9.848;2023-06-14T09:43:58;3.50;;;3.17;;
40501;SDS011;29631;49.168;9.848;2023-06-14T09:46:27;3.08;;;2.97;;
40501;SDS011;29631;49.168;9.848;2023-06-14T09:48:57;2.88;;;2.72;;
40501;SDS011;29631;49.168;9.848;2023-06-14T09:51:24;2.88;;;2.78;;
40501;SDS011;29631;49.168;9.848;2023-06-14T09:53:51;3.10;;;2.90;;
40501;SDS011;29631;49.168;9.848;2023-06-14T09:56:25;2.97;;;2.78;;
40501;SDS011;29631;49.168;9.848;2023-06-14T09:58:58;4.60;;;3.17;;
40501;SDS011;29631;49.168;9.848;2023-06-14T10:01:25;4.78;;;2.80;;
40501;SDS011;29631;49.168;9.848;2023-06-14T10:03:55;2.97;;;2.70;;
40501;SDS011;29631;49.168;9.848;2023-06-14T10:06:32;3.65;;;3.35;;
40501;SDS011;29631;49.168;9.848;2023-06-14T10:09:08;3.55;;;2.90;;
40501;SDS011;29631;49.168;9.848;2023-06-14T10:11:35;2.88;;;2.78;;
40501;SDS011;29631;49.168;9.848;2023-06-14T10:14:05;2.60;;;2.50;;
40501;SDS011;29631;49.168;9.848;2023-06-14T10:19:29;2.97;;;2.45;;
40501;SDS011;29631;49.168;9.848;2023-06-14T10:24:40;3.33;;;3.03;;
40501;SDS011;29631;49.168;9.848;2023-06-14T10:27:09;3.03;;;2.92;;
40501;SDS011;29631;49.168;9.848;2023-06-14T10:29:35;2.67;;;2.58;;
40501;SDS011;29631;49.168;9.848;2023-06-14T10:32:27;3.00;;;2.80;;
40501;SDS011;29631;49.168;9.848;2023-06-14T10:34:54;3.72;;;2.72;;
40501;SDS011;29631;49.168;9.848;2023-06-14T10:37:22;2.58;;;2.47;;
40501;SDS011;29631;49.168;9.848;2023-06-14T10:39:49;2.83;;;2.67;;
40501;SDS011;29631;49.168;9.848;2023-06-14T10:42:16;3.00;;;2.78;;
40501;SDS011;29631;49.168;9.848;2023-06-14T10:44:52;2.85;;;2.65;;
40501;SDS011;29631;49.168;9.848;2023-06-14T10:47:28;4.30;;;2.85;;
40501;SDS011;29631;49.168;9.848;2023-06-14T10:52:38;2.80;;;2.60;;
40501;SDS011;29631;49.168;9.848;2023-06-14T10:57:39;3.60;;;2.80;;
40501;SDS011;29631;49.168;9.848;2023-06-14T11:00:08;2.92;;;2.65;;
40501;SDS011;29631;49.168;9.848;2023-06-14T11:06:00;3.25;;;3.15;;
40501;SDS011;29631;49.168;9.848;2023-06-14T11:11:45;3.00;;;2.70;;
40501;SDS011;29631;49.168;9.848;2023-06-14T11:14:14;3.50;;;2.88;;
40501;SDS011;29631;49.168;9.848;2023-06-14T11:16:39;3.55;;;3.25;;
40501;SDS011;29631;49.168;9.848;2023-06-14T11:19:05;5.32;;;2.88;;
40501;SDS011;29631;49.168;9.848;2023-06-14T11:21:32;3.00;;;2.90;;
40501;SDS011;29631;49.168;9.848;2023-06-14T11:23:58;3.08;;;2.80;;
40501;SDS011;29631;49.168;9.848;2023-06-14T11:26:28;2.83;;;2.67;;
40501;SDS011;29631;49.168;9.848;2023-06-14T11:28:59;2.78;;;2.65;;
40501;SDS011;29631;49.168;9.848;2023-06-14T11:31:26;2.88;;;2.42;;
40501;SDS011;29631;49.168;9.848;2023-06-14T11:33:53;2.80;;;2.60;;
40501;SDS011;29631;49.168;9.848;2023-06-14T11:36:21;3.10;;;2.70;;
40501;SDS011;29631;49.168;9.848;2023-06-14T11:38:48;4.78;;;2.42;;
40501;SDS011;29631;49.168;9.848;2023-06-14T11:41:14;3.33;;;2.78;;
40501;SDS011;29631;49.168;9.848;2023-06-14T11:43:40;3.22;;;2.40;;
40501;SDS011;29631;49.168;9.848;2023-06-14T11:46:12;2.45;;;2.28;;
40501;SDS011;29631;49.168;9.848;2023-06-14T11:48:43;3.03;;;2.80;;
40501;SDS011;29631;49.168;9.848;2023-06-14T11:51:09;3.47;;;2.53;;
40501;SDS011;29631;49.168;9.848;2023-06-14T11:53:36;2.78;;;2.58;;
40501;SDS011;29631;49.168;9.848;2023-06-14T11:56:02;2.65;;;2.45;;
40501;SDS011;29631;49.168;9.848;2023-06-14T11:58:29;3.47;;;2.80;;
40501;SDS011;29631;49.168;9.848;2023-06-14T12:00:55;3.53;;;2.58;;
40501;SDS011;29631;49.168;9.848;2023-06-14T12:03:24;2.75;;;2.65;;
40501;SDS011;29631;49.168;9.848;2023-06-14T12:06:02;2.25;;;2.15;;
40501;SDS011;29631;49.168;9.848;2023-06-14T12:08:47;3.85;;;2.65;;
40501;SDS011;29631;49.168;9.848;2023-06-14T12:11:14;2.40;;;2.30;;
40501;SDS011;29631;49.168;9.848;2023-06-14T12:13:42;2.88;;;2.70;;
40501;SDS011;29631;49.168;9.848;2023-06-14T12:16:11;5.00;;;2.75;;
40501;SDS011;29631;49.168;9.848;2023-06-14T12:18:38;2.63;;;2.53;;
40501;SDS011;29631;49.168;9.848;2023-06-14T12:21:06;3.00;;;2.80;;
40501;SDS011;29631;49.168;9.848;2023-06-14T12:23:42;3.58;;;2.67;;
40501;SDS011;29631;49.168;9.848;2023-06-14T12:26:16;3.38;;;2.55;;
40501;SDS011;29631;49.168;9.848;2023-06-14T12:28:47;2.63;;;2.45;;
40501;SDS011;29631;49.168;9.848;2023-06-14T12:31:13;2.53;;;2.42;;
40501;SDS011;29631;49.168;9.848;2023-06-14T12:33:41;2.65;;;2.45;;
40501;SDS011;29631;49.168;9.848;2023-06-14T12:36:07;2.60;;;2.40;;
40501;SDS011;29631;49.168;9.848;2023-06-14T12:38:35;2.58;;;2.47;;
40501;SDS011;29631;49.168;9.848;2023-06-14T12:41:02;3.50;;;3.10;;
40501;SDS011;29631;49.168;9.848;2023-06-14T12:43:28;2.75;;;2.50;;
40501;SDS011;29631;49.168;9.848;2023-06-14T12:45:54;2.70;;;2.60;;
40501;SDS011;29631;49.168;9.848;2023-06-14T12:48:20;2.70;;;2.60;;
40501;SDS011;29631;49.168;9.848;2023-06-14T12:50:47;3.00;;;2.88;;
40501;SDS011;29631;49.168;9.848;2023-06-14T12:53:13;3.65;;;2.60;;
40501;SDS011;29631;49.168;9.848;2023-06-14T12:55:39;4.57;;;2.50;;
40501;SDS011;29631;49.168;9.848;2023-06-14T12:58:05;2.85;;;2.67;;
40501;SDS011;29631;49.168;9.848;2023-06-14T13:00:30;2.75;;;2.55;;
40501;SDS011;29631;49.168;9.848;2023-06-14T13:02:56;2.97;;;2.20;;
40501;SDS011;29631;49.168;9.848;2023-06-14T13:05:23;2.65;;;2.30;;
40501;SDS011;29631;49.168;9.848;2023-06-14T13:07:49;2.50;;;2.40;;
40501;SDS011;29631;49.168;9.848;2023-06-14T13:10:16;2.50;;;2.30;;
40501;SDS011;29631;49.168;9.848;2023-06-14T13:12:42;2.30;;;2.20;;
40501;SDS011;29631;49.168;9.848;2023-06-14T13:15:08;2.35;;;2.25;;
40501;SDS011;29631;49.168;9.848;2023-06-14T13:17:35;3.30;;;2.50;;
40501;SDS011;29631;49.168;9.848;2023-06-14T13:20:05;2.85;;;2.65;;
40501;SDS011;29631;49.168;9.848;2023-06-14T13:22:32;2.70;;;2.50;;
40501;SDS011;29631;49.168;9.848;2023-06-14T13:24:58;2.45;;;2.35;;
40501;SDS011;29631;49.168;9.848;2023-06-14T13:27:25;2.60;;;2.50;;
40501;SDS011;29631;49.168;9.848;2023-06-14T13:29:52;3.03;;;2.45;;
40501;SDS011;29631;49.168;9.848;2023-06-14T13:32:20;2.70;;;2.33;;
40501;SDS011;29631;49.168;9.848;2023-06-14T13:34:47;2.58;;;2.47;;
40501;SDS011;29631;49.168;9.848;2023-06-14T13:37:13;2.40;;;2.20;;
40501;SDS011;29631;49.168;9.848;2023-06-14T13:39:39;2.88;;;2.70;;
40501;SDS011;29631;49.168;9.848;2023-06-14T13:42:05;2.30;;;2.08;;
40501;SDS011;29631;49.168;9.848;2023-06-14T13:44:31;2.40;;;2.30;;
40501;SDS011;29631;49.168;9.848;2023-06-14T13:46:57;2.60;;;2.50;;
40501;SDS011;29631;49.168;9.848;2023-06-14T13:49:23;2.60;;;2.50;;
40501;SDS011;29631;49.168;9.848;2023-06-14T13:51:48;2.70;;;2.55;;
40501;SDS011;29631;49.168;9.848;2023-06-14T13:54:14;2.92;;;2.58;;
40501;SDS011;29631;49.168;9.848;2023-06-14T13:56:40;3.00;;;2.80;;
40501;SDS011;29631;49.168;9.848;2023-06-14T13:59:06;2.90;;;2.70;;
40501;SDS011;29631;49.168;9.848;2023-06-14T14:01:32;2.55;;;2.40;;
40501;SDS011;29631;49.168;9.848;2023-06-14T14:03:58;2.75;;;2.55;;
40501;SDS011;29631;49.168;9.848;2023-06-14T14:06:25;2.40;;;2.30;;
40501;SDS011;29631;49.168;9.848;2023-06-14T14:08:51;2.70;;;2.50;;
40501;SDS011;29631;49.168;9.848;2023-06-14T14:11:18;3.00;;;2.80;;
40501;SDS011;29631;49.168;9.848;2023-06-14T14:13:45;2.63;;;2.42;;
40501;SDS011;29631;49.168;9.848;2023-06-14T14:16:12;2.72;;;2.35;;
40501;SDS011;29631;49.168;9.848;2023-06-14T14:18:38;2.90;;;2.70;;
40501;SDS011;29631;49.168;9.848;2023-06-14T14:21:04;2.88;;;2.67;;
40501;SDS011;29631;49.168;9.848;2023-06-14T14:23:30;2.83;;;2.58;;
40501;SDS011;29631;49.168;9.848;2023-06-14T14:25:55;2.55;;;2.35;;
40501;SDS011;29631;49.168;9.848;2023-06-14T14:28:21;2.60;;;2.40;;
40501;SDS011;29631;49.168;9.848;2023-06-14T14:30:48;3.03;;;2.75;;
40501;SDS011;29631;49.168;9.848;2023-06-14T14:33:14;2.58;;;2.45;;
40501;SDS011;29631;49.168;9.848;2023-06-14T14:35:43;2.70;;;2.50;;
40501;SDS011;29631;49.168;9.848;2023-06-14T14:38:12;2.97;;;2.75;;
40501;SDS011;29631;49.168;9.848;2023-06-14T14:40:40;2.72;;;2.55;;
40501;SDS011;29631;49.168;9.848;2023-06-14T14:43:07;2.70;;;2.50;;
40501;SDS011;29631;49.168;9.848;2023-06-14T14:45:33;2.60;;;2.50;;
40501;SDS011;29631;49.168;9.848;2023-06-14T14:48:00;2.72;;;2.53;;
40501;SDS011;29631;49.168;9.848;2023-06-14T14:50:26;2.72;;;2.63;;
40501;SDS011;29631;49.168;9.848;2023-06-14T14:52:51;2.80;;;2.70;;
40501;SDS011;29631;49.168;9.848;2023-06-14T14:55:17;2.58;;;2.47;;
40501;SDS011;29631;49.168;9.848;2023-06-14T14:57:43;2.75;;;2.60;;
40501;SDS011;29631;49.168;9.848;2023-06-14T15:00:11;2.80;;;2.70;;
40501;SDS011;29631;49.168;9.848;2023-06-14T15:02:37;4.28;;;2.70;;
40501;SDS011;29631;49.168;9.848;2023-06-14T15:05:03;2.55;;;2.45;;
40501;SDS011;29631;49.168;9.848;2023-06-14T15:07:29;2.67;;;2.58;;
40501;SDS011;29631;49.168;9.848;2023-06-14T15:09:59;2.90;;;2.70;;
40501;SDS011;29631;49.168;9.848;2023-06-14T15:12:26;4.05;;;2.60;;